Time;durP1;ratioP1;P1;durP2;ratioP2;P2;SDS_P1;SDS_P2;PMS_P1;PMS_P2;Temp;Humidity;BMP_temperature;BMP_pressure;BME280_temperature;BME280_humidity;BME280_pressure;Samples;Min_cycle;Max_cycle;Signal;HPM_P1;HPM_P2
2022/02/02 00:00:22;;;;;;;;;;;;;;;16.37;46.96;101344.78;5048170;28;20027;-63
2022/02/02 00:02:50;;;;;;;11.20;2.88;;;;;;;16.31;46.91;101342.69;5061031;28;19908;-63
2022/02/02 00:07:54;;;;;;;9.90;2.65;;;;;;;16.24;47.42;101341.63;5056404;28;20041;-63
2022/02/02 00:11:27;;;;;;;10.20;2.53;;;;;;;16.30;46.98;101362.63;5037808;28;20028;-63
2022/02/02 00:13:15;;;;;;;12.45;2.53;;;;;;;16.28;46.96;101367.31;5047731;28;20041;-63
2022/02/02 00:15:54;;;;;;;;;;;;;;;16.27;48.11;101373.75;5056628;28;20067;-63
2022/02/02 00:20:56;;;;;;;17.40;2.88;;;;;;;16.24;47.62;101368.66;5055777;28;20390;-63
2022/02/02 00:23:27;;;;;;;23.17;2.55;;;;;;;16.21;46.85;101380.63;5055817;28;20028;-63
2022/02/02 00:26:01;;;;;;;20.35;2.45;;;;;;;16.23;46.40;101380.47;5055766;28;20033;-63
2022/02/02 00:28:31;;;;;;;13.15;3.25;;;;;;;16.24;46.68;101398.38;5055660;28;20103;-63
2022/02/02 00:31:01;;;;;;;12.45;1.95;;;;;;;16.24;46.67;101392.97;5055429;28;20459;-63
2022/02/02 00:33:31;;;;;;;14.02;1.90;;;;;;;16.24;46.94;101384.88;5055403;28;20032;-63
2022/02/02 00:36:06;;;;;;;11.40;2.45;;;;;;;16.21;46.44;101396.84;5055318;28;20497;-63
2022/02/02 00:38:31;;;;;;;20.15;2.78;;;;;;;16.17;47.00;101386.47;5055187;28;20498;-63
2022/02/02 00:40:56;;;;;;;15.90;2.67;;;;;;;16.20;47.86;101396.97;5055523;28;20025;-63
2022/02/02 00:43:22;;;;;;;11.18;2.15;;;;;;;16.17;47.58;101392.72;5055404;28;20025;-63
2022/02/02 00:45:49;;;;;;;17.70;2.47;;;;;;;16.14;47.40;101392.16;5055580;28;20033;-63
2022/02/02 00:48:16;;;;;;;10.65;2.22;;;;;;;16.10;46.63;101385.38;5055622;28;20387;-63
2022/02/02 00:50:42;;;;;;;9.50;1.45;;;;;;;16.11;47.70;101384.34;5055217;28;20036;-63
2022/02/02 00:53:08;;;;;;;15.98;2.10;;;;;;;16.07;47.88;101389.25;5055260;28;20033;-63
2022/02/02 00:55:34;;;;;;;15.45;2.58;;;;;;;16.02;47.25;101393.41;5037602;28;20462;-63
2022/02/02 00:58:03;;;;;;;9.23;1.85;;;;;;;16.02;46.69;101383.44;5037339;28;20447;-63
2022/02/02 01:00:29;;;;;;;13.82;1.88;;;;;;;16.01;48.09;101402.50;5037336;28;20024;-63
2022/02/02 01:02:55;;;;;;;9.20;2.10;;;;;;;16.00;46.46;101400.78;5054890;28;20116;-63
2022/02/02 01:05:20;;;;;;;18.30;3.72;;;;;;;16.01;47.72;101407.91;5055279;28;20147;-63
2022/02/02 01:10:37;;;;;;;10.07;2.60;;;;;;;15.94;46.48;101393.31;5054757;28;20449;-63
2022/02/02 01:20:57;;;;;;;14.95;2.22;;;;;;;15.96;47.62;101394.00;5055206;28;20473;-63
2022/02/02 01:28:40;;;;;;;11.73;2.45;;;;;;;15.98;47.69;101408.19;5054428;28;20028;-63
2022/02/02 01:31:06;;;;;;;15.25;2.13;;;;;;;15.97;46.77;101417.31;5054248;28;20402;-63
2022/02/02 01:33:32;;;;;;;13.65;2.17;;;;;;;15.96;46.48;101411.06;5054088;28;20032;-63
2022/02/02 01:35:58;;;;;;;12.48;2.63;;;;;;;15.94;47.05;101407.63;5036750;28;20031;-63
2022/02/02 01:38:26;;;;;;;7.57;2.75;;;;;;;15.98;47.70;101414.47;5036385;28;20017;-63
2022/02/02 01:40:57;;;;;;;15.27;2.50;;;;;;;15.95;47.25;101397.69;5054909;28;20020;-63
2022/02/02 01:43:28;;;;;;;11.23;2.47;;;;;;;15.93;47.29;101388.88;5054402;28;20036;-63
2022/02/02 01:45:59;;;;;;;5.95;1.67;;;;;;;15.89;47.97;101400.97;5054475;28;20036;-63
2022/02/02 01:48:40;;;;;;;16.42;2.65;;;;;;;15.91;48.20;101407.09;5054395;28;20021;-63
2022/02/02 01:56:01;;;;;;;10.23;2.40;;;;;;;15.90;47.23;101413.50;5054462;28;20494;-63
2022/02/02 02:00:53;;;;;;;6.95;2.08;;;;;;;15.91;47.28;101420.63;5053848;28;20100;-63
2022/02/02 02:03:18;;;;;;;21.00;2.35;;;;;;;15.93;47.92;101424.00;5053870;28;20036;-63
2022/02/02 02:05:44;;;;;;;10.60;2.00;;;;;;;15.89;48.24;101409.94;5036008;28;20029;-63
2022/02/02 02:08:09;;;;;;;14.73;1.75;;;;;;;15.92;47.40;101409.66;5054004;28;20025;-63
2022/02/02 02:10:34;;;;;;;13.57;2.28;;;;;;;15.95;46.93;101403.94;5053640;28;20450;-62
2022/02/02 02:13:09;;;;;;;18.38;2.22;;;;;;;16.00;47.11;101417.00;5053605;28;20036;-63
2022/02/02 02:15:35;;;;;;;14.77;2.08;;;;;;;16.00;46.43;101423.25;5035858;28;20442;-63
2022/02/02 02:18:01;;;;;;;9.15;2.10;;;;;;;16.00;47.49;101427.81;5053805;28;20028;-63
2022/02/02 02:20:27;;;;;;;13.40;1.98;;;;;;;15.93;47.63;101426.72;5035875;28;20032;-63
2022/02/02 02:22:53;;;;;;;24.83;2.75;;;;;;;16.03;46.80;101432.91;5053792;28;20474;-63
2022/02/02 02:25:23;;;;;;;12.85;3.00;;;;;;;16.02;46.33;101426.69;5053774;28;20025;-63
2022/02/02 02:27:49;;;;;;;21.02;2.42;;;;;;;16.04;47.70;101440.03;5035912;28;20021;-63
2022/02/02 02:30:27;;;;;;;13.27;2.35;;;;;;;16.05;47.62;101445.28;5035596;28;20471;-63
2022/02/02 02:57:03;;;;;;;14.30;2.30;;;;;;;15.99;46.32;101434.22;5057363;28;20502;-63
2022/02/02 02:59:46;;;;;;;16.27;2.38;;;;;;;16.00;47.24;101434.06;5057474;28;20032;-63
2022/02/02 03:02:51;;;;;;;9.90;2.10;;;;;;;16.01;47.75;101434.91;5057224;28;20025;-63
2022/02/02 03:32:49;;;;;;;18.38;2.08;;;;;;;15.96;47.64;101448.03;5056926;28;20044;-63
2022/02/02 03:57:08;;;;;;;22.77;2.85;;;;;;;15.91;47.15;101450.34;5040584;28;20051;-63
2022/02/02 04:04:28;;;;;;;19.65;3.67;;;;;;;15.90;47.08;101448.63;5056248;28;20029;-63
2022/02/02 04:07:06;;;;;;;17.95;2.63;;;;;;;15.92;47.32;101450.19;5055943;28;20478;-63
2022/02/02 04:09:37;;;;;;;18.77;2.58;;;;;;;15.91;47.13;101455.75;5055872;28;20033;-62
2022/02/02 04:39:16;;;;;;;16.90;2.33;;;;;;;15.96;46.95;101480.47;5055409;28;20052;-62
2022/02/02 05:06:13;;;;;;;12.57;2.00;;;;;;;15.87;47.30;101482.19;5054679;28;20166;-63
2022/02/02 05:41:06;;;;;;;13.70;2.00;;;;;;;15.98;46.18;101510.88;5017586;28;20513;-63
2022/02/02 05:43:29;;;;;;;11.00;2.30;;;;;;;15.90;47.86;101526.97;5059146;28;20460;-63
2022/02/02 05:48:57;;;;;;;10.50;2.13;;;;;;;15.87;47.01;101540.78;5057048;28;20057;-62
2022/02/02 05:54:14;;;;;;;11.13;1.83;;;;;;;15.91;47.38;101558.41;5052484;28;20040;-63
2022/02/02 05:56:43;;;;;;;9.63;2.70;;;;;;;15.91;46.29;101542.19;5074043;28;20024;-63
2022/02/02 05:59:11;;;;;;;17.42;2.42;;;;;;;15.90;47.45;101549.44;5056181;28;20025;-63
2022/02/02 06:01:39;;;;;;;11.80;2.83;;;;;;;15.92;46.79;101543.88;5074250;28;20024;-63
2022/02/02 06:04:08;;;;;;;12.23;2.67;;;;;;;15.94;47.74;101558.13;5056088;28;20020;-63
2022/02/02 06:06:33;;;;;;;6.18;1.75;;;;;;;15.91;47.38;101563.81;5056049;28;20075;-63
2022/02/02 06:09:00;;;;;;;16.63;2.80;;;;;;;15.89;47.26;101565.78;5074164;28;20028;-63
2022/02/02 06:11:26;;;;;;;13.43;3.22;;;;;;;15.88;47.44;101569.50;5055899;28;20026;-62
2022/02/02 06:13:56;;;;;;;10.77;1.83;;;;;;;15.91;46.94;101577.34;5073749;28;20032;-62
2022/02/02 06:16:24;;;;;;;10.63;1.77;;;;;;;15.91;47.82;101578.19;5074326;28;20048;-63
2022/02/02 06:19:01;;;;;;;13.10;3.20;;;;;;;15.89;47.43;101576.59;5073893;28;20126;-63
2022/02/02 06:21:30;;;;;;;15.73;2.30;;;;;;;15.90;47.42;101589.13;5074069;28;20074;-63
2022/02/02 06:23:59;;;;;;;14.07;3.10;;;;;;;15.90;46.64;101583.72;5074067;28;20017;-63
2022/02/02 06:26:26;;;;;;;8.75;2.00;;;;;;;15.91;47.20;101591.69;5074212;28;20485;-63
2022/02/02 06:28:51;;;;;;;11.18;2.20;;;;;;;15.93;46.53;101578.88;5073867;28;20031;-63
2022/02/02 06:31:18;;;;;;;10.15;1.65;;;;;;;15.90;46.38;101584.56;5039213;28;20111;-63
2022/02/02 06:33:47;;;;;;;10.27;2.20;;;;;;;15.93;47.50;101587.00;5055759;28;20046;-63
2022/02/02 06:36:12;;;;;;;18.55;4.40;;;;;;;15.95;47.69;101576.03;5055356;28;20036;-63
2022/02/02 06:38:38;;;;;;;17.77;2.67;;;;;;;15.95;46.87;101581.44;5056039;28;20017;-63
2022/02/02 06:41:06;;;;;;;15.02;2.55;;;;;;;15.90;46.65;101573.78;5073333;28;20041;-63
2022/02/02 06:43:32;;;;;;;21.40;3.10;;;;;;;15.94;46.58;101579.75;5073754;28;20071;-63
2022/02/02 06:46:00;;;;;;;16.70;2.50;;;;;;;15.93;47.77;101586.13;5074153;28;20025;-63
2022/02/02 06:48:29;;;;;;;18.83;3.47;;;;;;;15.94;46.41;101591.38;5073908;28;20024;-63
2022/02/02 06:51:07;;;;;;;18.33;3.28;;;;;;;15.92;46.81;101592.53;5056344;28;20031;-63
2022/02/02 06:53:46;;;;;;;15.85;2.78;;;;;;;15.92;47.88;101603.34;5058969;28;20029;-63
2022/02/02 06:56:27;;;;;;;9.00;3.28;;;;;;;15.93;47.55;101605.06;5036299;28;20456;-63
2022/02/02 07:05:11;;;;;;;10.40;2.63;;;;;;;15.99;47.88;101612.59;5052846;28;20479;-63
2022/02/02 07:08:16;;;;;;;14.45;3.95;;;;;;;16.01;46.90;101608.72;5052704;28;20029;-63
2022/02/02 07:11:09;;;;;;;9.60;2.35;;;;;;;16.00;46.51;101616.97;5053319;28;20470;-63
2022/02/02 07:18:47;;;;;;;21.05;3.42;;;;;;;16.05;46.57;101636.34;5053203;28;20092;-63
2022/02/02 07:21:41;;;;;;;19.25;2.55;;;;;;;16.05;47.51;101647.97;5056560;28;20044;-63
2022/02/02 07:24:32;;;;;;;18.40;3.05;;;;;;;16.07;47.49;101640.59;5072579;28;20025;-63
2022/02/02 07:34:43;;;;;;;21.40;3.22;;;;;;;16.14;46.53;101641.72;5039041;28;20386;-63
2022/02/02 07:37:12;;;;;;;12.32;2.95;;;;;;;16.17;47.38;101645.97;5056462;28;20474;-63
2022/02/02 07:39:40;;;;;;;8.98;2.60;;;;;;;16.16;46.73;101655.09;5056242;28;20519;-63
2022/02/02 07:42:07;;;;;;;11.45;3.05;;;;;;;16.20;46.67;101661.91;5038532;28;20040;-63
2022/02/02 07:44:36;;;;;;;11.38;2.22;;;;;;;16.21;46.85;101664.47;5022057;28;20430;-63
2022/02/02 07:47:06;;;;;;;12.73;2.67;;;;;;;16.22;47.76;101659.88;5056459;28;20368;-63
2022/02/02 07:49:35;;;;;;;9.07;2.50;;;;;;;16.25;46.16;101665.00;5059001;28;20029;-64
2022/02/02 07:52:02;;;;;;;17.17;2.75;;;;;;;16.26;46.73;101653.22;5076344;28;20028;-63
2022/02/02 07:54:30;;;;;;;13.30;3.30;;;;;;;16.26;46.75;101661.31;5076110;28;20028;-63
2022/02/02 07:56:56;;;;;;;14.40;3.10;;;;;;;16.23;46.27;101664.31;5076224;28;20501;-63
2022/02/02 07:59:39;;;;;;;9.35;3.20;;;;;;;16.22;46.60;101668.00;5076207;28;20028;-63
2022/02/02 08:02:05;;;;;;;11.43;2.30;;;;;;;16.22;46.55;101671.56;5045639;28;20021;-62
2022/02/02 08:04:31;;;;;;;13.80;3.08;;;;;;;16.20;47.17;101672.72;5056833;28;20124;-63
2022/02/02 08:06:57;;;;;;;10.35;2.50;;;;;;;16.21;46.11;101669.03;5076087;28;20037;-63
2022/02/02 08:09:30;;;;;;;16.10;3.50;;;;;;;16.25;46.67;101670.41;5076303;28;20028;-62
2022/02/02 08:11:56;;;;;;;18.77;4.22;;;;;;;16.24;46.65;101666.88;5075987;28;20474;-63
2022/02/02 08:14:23;;;;;;;16.90;4.80;;;;;;;16.32;46.66;101685.09;5076017;28;20075;-63
2022/02/02 08:16:48;;;;;;;20.65;4.47;;;;;;;16.35;46.08;101692.91;5058671;28;20051;-63
2022/02/02 08:19:16;;;;;;;19.70;4.72;;;;;;;16.39;47.03;101691.59;5074589;28;20437;-62
2022/02/02 08:21:42;;;;;;;15.77;3.60;;;;;;;16.41;46.95;101692.31;5075734;28;20520;-63
2022/02/02 08:24:09;;;;;;;22.02;4.18;;;;;;;16.44;46.17;101691.19;5068159;28;20486;-63
2022/02/02 08:26:34;;;;;;;22.90;3.10;;;;;;;16.46;47.70;101695.44;5056044;28;20474;-62
2022/02/02 08:29:00;;;;;;;18.17;4.63;;;;;;;16.49;47.05;101697.84;5037999;28;20079;-63
2022/02/02 08:31:27;;;;;;;12.65;3.92;;;;;;;16.46;46.62;101690.03;5055793;28;20053;-63
2022/02/02 08:33:57;;;;;;;25.88;3.65;;;;;;;16.46;47.13;101692.75;5037934;28;20025;-62
2022/02/02 08:36:22;;;;;;;13.18;2.88;;;;;;;16.58;46.51;101704.28;5055322;28;20108;-63
2022/02/02 08:39:02;;;;;;;14.40;3.83;;;;;;;16.61;46.85;101709.41;5055478;28;20052;-63
2022/02/02 08:41:34;;;;;;;21.67;5.82;;;;;;;16.61;47.07;101710.22;5033690;28;20045;-62
2022/02/02 08:44:04;;;;;;;19.55;4.25;;;;;;;16.65;46.88;101711.66;5035324;28;20036;-62
2022/02/02 08:46:38;;;;;;;16.42;3.58;;;;;;;16.68;47.48;101722.19;5035635;28;20034;-63
2022/02/02 08:49:07;;;;;;;15.23;3.20;;;;;;;16.70;46.64;101731.00;5034452;28;20434;-63
2022/02/02 08:51:39;;;;;;;26.10;5.93;;;;;;;16.70;46.63;101720.16;5035582;28;20025;-62
2022/02/02 08:59:04;;;;;;;14.70;4.22;;;;;;;16.82;45.83;101729.84;5035651;28;20065;-62
2022/02/02 09:01:33;;;;;;;14.55;3.63;;;;;;;16.84;46.02;101721.56;5035554;28;20474;-63
2022/02/02 09:06:43;;;;;;;15.13;3.22;;;;;;;17.23;45.74;101722.22;5035494;28;20036;-63
2022/02/02 09:09:12;;;;;;;17.38;4.82;;;;;;;17.36;45.53;101736.28;5034060;28;20110;-63
2022/02/02 09:20:07;;;;;;;18.15;2.90;;;;;;;18.03;45.42;101742.13;5055337;28;20528;-63
2022/02/02 09:25:23;;;;;;;14.20;2.83;;;;;;;18.70;45.11;101754.25;5055160;28;20121;-63
2022/02/02 09:35:44;;;;;;;12.85;3.05;;;;;;;18.88;44.75;101760.47;5055007;28;20029;-63
2022/02/02 09:38:09;;;;;;;9.27;2.80;;;;;;;18.86;44.62;101759.78;5054708;28;20483;-63
2022/02/02 09:43:17;;;;;;;16.15;2.88;;;;;;;18.80;44.97;101748.72;5058427;28;20021;-63
2022/02/02 09:45:49;;;;;;;11.05;3.22;;;;;;;18.78;44.72;101750.75;5074564;28;20035;-63
2022/02/02 09:48:25;;;;;;;10.05;3.10;;;;;;;18.83;45.21;101757.41;5074776;28;20052;-63
2022/02/02 09:50:55;;;;;;;13.10;3.25;;;;;;;18.98;44.64;101758.47;5074334;28;20063;-63
2022/02/02 09:56:26;;;;;;;18.92;4.70;;;;;;;18.99;44.84;101754.78;5074232;28;20067;-63
2022/02/02 10:14:14;;;;;;;9.55;2.72;;;;;;;19.02;44.65;101787.03;5074303;28;20025;-63
2022/02/02 10:16:44;;;;;;;15.05;4.50;;;;;;;18.96;44.60;101781.38;5074241;28;20052;-63
2022/02/02 10:19:24;;;;;;;18.77;4.57;;;;;;;18.90;44.47;101785.59;5074230;28;20041;-63
2022/02/02 10:21:49;;;;;;;11.57;3.45;;;;;;;18.85;44.89;101790.66;5073825;28;20013;-63
2022/02/02 10:24:16;;;;;;;15.60;3.42;;;;;;;18.78;44.75;101788.75;5074086;28;20360;-63
2022/02/02 10:26:49;;;;;;;16.65;3.42;;;;;;;18.76;44.93;101791.59;5056041;28;20028;-63
2022/02/02 10:29:16;;;;;;;16.15;4.03;;;;;;;18.83;44.35;101792.69;5055887;28;20108;-63
2022/02/02 10:31:47;;;;;;;9.52;3.10;;;;;;;18.90;44.55;101793.75;5056317;28;20482;-63
2022/02/02 10:34:18;;;;;;;17.35;5.32;;;;;;;19.03;44.41;101798.75;5074140;28;20474;-63
2022/02/02 10:36:44;;;;;;;13.70;3.13;;;;;;;19.20;44.03;101795.13;5073865;28;20474;-63
2022/02/02 10:39:16;;;;;;;11.52;3.63;;;;;;;19.25;44.01;101797.34;5073867;28;20025;-63
2022/02/02 10:41:53;;;;;;;15.38;3.33;;;;;;;19.39;44.03;101805.78;5073958;28;20052;-63
2022/02/02 10:44:29;;;;;;;9.85;3.20;;;;;;;19.44;43.83;101813.44;5074757;28;20078;-63
2022/02/02 10:47:04;;;;;;;16.95;3.35;;;;;;;19.44;43.68;101808.00;5074225;28;20028;-63
2022/02/02 10:52:15;;;;;;;9.10;4.40;;;;;;;19.49;44.24;101811.09;5038220;28;20052;-63
2022/02/02 10:58:00;;;;;;;13.48;2.92;;;;;;;19.53;43.89;101820.63;5053914;28;20389;-63
2022/02/02 11:00:47;;;;;;;9.98;2.78;;;;;;;19.54;43.76;101830.50;5053131;28;20029;-63
2022/02/02 11:08:42;;;;;;;11.85;3.00;;;;;;;19.56;44.19;101847.47;5057280;28;20032;-63
2022/02/02 11:11:10;;;;;;;8.95;3.60;;;;;;;19.45;44.31;101842.34;5057328;28;20036;-62
2022/02/02 11:13:35;;;;;;;11.52;3.15;;;;;;;19.35;44.39;101836.13;5057536;28;20055;-63
2022/02/02 11:16:02;;;;;;;21.55;3.08;;;;;;;19.34;44.27;101838.00;5039469;28;20037;-62
2022/02/02 11:18:35;;;;;;;19.20;3.03;;;;;;;19.41;43.73;101830.06;5039596;28;20052;-62
2022/02/02 11:21:15;;;;;;;15.05;3.67;;;;;;;19.38;43.79;101827.63;5039587;28;20047;-63
2022/02/02 11:23:45;;;;;;;12.40;2.70;;;;;;;19.38;44.39;101824.91;5057231;28;20482;-63
2022/02/02 11:26:11;;;;;;;16.08;2.95;;;;;;;19.33;44.20;101828.13;5057139;28;20028;-63
2022/02/02 11:28:37;;;;;;;16.73;3.40;;;;;;;19.35;43.72;101826.09;5056844;28;20029;-63
2022/02/02 11:31:18;;;;;;;11.43;2.63;;;;;;;19.35;44.08;101827.97;5056767;28;20025;-63
2022/02/02 11:33:46;;;;;;;9.95;3.03;;;;;;;19.38;43.79;101827.63;5057147;28;20563;-62
2022/02/02 11:36:21;;;;;;;11.57;2.67;;;;;;;19.37;43.90;101820.53;5039623;28;20548;-61
2022/02/02 11:38:47;;;;;;;17.45;2.92;;;;;;;19.45;43.78;101815.16;5057868;28;20055;-62
2022/02/02 11:41:40;;;;;;;14.38;3.92;;;;;;;19.48;43.99;101820.28;5056899;28;20052;-62
2022/02/02 11:47:21;;;;;;;9.05;3.10;;;;;;;19.43;43.54;101831.59;5056661;28;20487;-62
2022/02/02 11:50:04;;;;;;;19.48;4.00;;;;;;;19.46;43.20;101822.28;5057185;28;20021;-62
2022/02/02 11:52:37;;;;;;;17.17;5.30;;;;;;;19.55;43.22;101822.16;5040369;28;20503;-62
2022/02/02 11:55:03;;;;;;;;;;;;;;;19.62;43.57;101811.50;5039528;28;20033;-62
2022/02/02 11:57:36;;;;;;;13.55;3.45;;;;;;;19.62;43.00;101816.94;5038931;28;19955;-62
2022/02/02 12:00:41;;;;;;;13.68;3.50;;;;;;;19.58;43.32;101805.53;5038919;28;20025;-62
2022/02/02 12:03:22;;;;;;;10.32;2.83;;;;;;;19.61;42.99;101802.50;5041416;28;20036;-63
2022/02/02 12:06:02;;;;;;;17.92;3.38;;;;;;;19.76;43.24;101810.88;5056383;28;20075;-63
2022/02/02 13:03:06;;;;;;;12.77;3.10;;;;;;;19.58;42.54;101816.41;5063051;28;20033;-63
2022/02/02 13:05:34;;;;;;;16.38;3.05;;;;;;;19.59;43.00;101817.25;5069188;28;20028;-63
2022/02/02 13:08:00;;;;;;;11.25;2.30;;;;;;;19.62;42.88;101808.78;5058189;28;20024;-63
2022/02/02 13:10:31;;;;;;;10.80;3.42;;;;;;;19.63;42.63;101796.88;5074190;28;20521;-63
2022/02/02 13:13:14;;;;;;;11.55;2.45;;;;;;;19.74;42.73;101780.25;5074565;28;20027;-63
2022/02/02 13:18:33;;;;;;;10.32;2.00;;;;;;;20.16;41.62;101778.31;5075227;28;19908;-63
2022/02/02 13:21:06;;;;;;;10.95;2.17;;;;;;;20.41;41.76;101781.94;5075376;28;20039;-63
2022/02/02 13:26:10;;;;;;;11.10;2.03;;;;;;;20.15;42.19;101792.97;5074895;28;20029;-63
2022/02/02 13:28:36;;;;;;;16.05;2.67;;;;;;;20.09;42.41;101799.06;5074612;28;20054;-62
2022/02/02 13:31:02;;;;;;;11.32;1.95;;;;;;;20.05;42.19;101804.97;5075020;28;20060;-63
2022/02/02 13:33:34;;;;;;;6.22;1.40;;;;;;;19.92;42.25;101813.63;5075246;28;20048;-63
2022/02/02 13:36:21;;;;;;;17.23;2.38;;;;;;;19.84;42.13;101820.91;5074507;28;20074;-62
2022/02/02 13:53:08;;;;;;;10.95;2.80;;;;;;;19.22;43.24;101842.00;5056896;28;20130;-62
2022/02/02 14:09:16;;;;;;;13.50;3.03;;;;;;;18.91;43.55;101871.47;5074477;28;20028;-62
2022/02/02 14:25:49;;;;;;;6.78;2.40;;;;;;;18.90;43.80;101875.19;5074387;28;20170;-62
2022/02/02 14:26:06;;;;;;;25.50;7.18;;;;;;;18.87;43.80;101885.53;5074320;28;20035;-62
2022/02/02 14:33:38;;;;;;;7.07;2.63;;;;;;;18.85;43.46;101888.41;5073801;28;20017;-62
2022/02/02 14:36:07;;;;;;;10.77;2.63;;;;;;;18.87;44.30;101891.81;5073968;28;20489;-62
2022/02/02 14:38:45;;;;;;;9.73;2.97;;;;;;;18.90;44.28;101886.06;5073904;28;20029;-62
2022/02/02 14:41:36;;;;;;;9.52;2.85;;;;;;;18.91;43.89;101886.91;5077942;28;20044;-62
2022/02/02 14:44:26;;;;;;;8.15;2.40;;;;;;;18.91;44.23;101885.06;5078147;28;20103;-62
2022/02/02 14:49:43;;;;;;;7.35;2.10;;;;;;;18.84;43.77;101886.72;5078193;28;20025;-62
2022/02/02 14:54:48;;;;;;;7.13;2.38;;;;;;;18.90;43.99;101890.66;5077604;28;20025;-63
2022/02/02 15:25:04;;;;;;;4.97;2.67;;;;;;;18.62;44.50;101913.47;5076968;28;20143;-63
2022/02/02 15:32:17;;;;;;;20.40;9.98;;;;;;;18.58;44.93;101915.63;5077646;28;20550;-62
2022/02/02 15:34:47;;;;;;;18.17;4.75;;;;;;;18.56;44.68;101914.94;5077018;28;20482;-63
2022/02/02 15:37:39;;;;;;;11.65;4.88;;;;;;;18.54;44.82;101912.38;5077437;28;20029;-62
2022/02/02 15:40:14;;;;;;;11.77;2.58;;;;;;;18.50;44.74;101910.13;5076171;28;20391;-62
2022/02/02 15:58:22;;;;;;;22.50;5.32;;;;;;;18.25;45.60;101910.84;5059947;28;20025;-62
2022/02/02 16:03:31;;;;;;;13.63;3.17;;;;;;;18.23;45.73;101912.88;5077010;28;20028;-62
2022/02/02 16:06:02;;;;;;;4.32;1.75;;;;;;;18.21;45.31;101920.28;5043002;28;20493;-62
2022/02/02 16:08:28;;;;;;;13.63;2.63;;;;;;;18.22;45.72;101917.44;5042809;28;20355;-62
2022/02/02 16:13:38;;;;;;;10.65;2.45;;;;;;;18.13;45.13;101907.47;5076484;28;20561;-62
2022/02/02 16:16:15;;;;;;;5.20;1.33;;;;;;;18.14;45.39;101897.50;5076470;28;20024;-62
2022/02/02 16:37:22;;;;;;;5.93;1.15;;;;;;;17.78;45.90;101902.78;5058528;28;20048;-63
2022/02/02 16:39:53;;;;;;;5.28;1.73;;;;;;;17.74;46.10;101895.97;5058527;28;20021;-63
2022/02/02 16:45:03;;;;;;;2.58;0.95;;;;;;;17.68;45.64;101885.72;5060616;28;20027;-67
2022/02/02 16:47:28;;;;;;;2.90;0.90;;;;;;;17.65;46.05;101887.88;5075735;28;20055;-63
2022/02/02 16:49:53;;;;;;;5.60;1.40;;;;;;;17.61;46.01;101889.19;5075654;28;20028;-63
2022/02/02 16:52:23;;;;;;;4.00;1.05;;;;;;;17.59;46.35;101883.09;5075455;28;20035;-63
2022/02/02 16:54:48;;;;;;;2.63;1.05;;;;;;;17.49;45.84;101877.66;5075689;28;20024;-63
2022/02/02 16:57:39;;;;;;;4.10;1.02;;;;;;;17.52;46.18;101884.63;5075370;28;20398;-62
2022/02/02 17:28:25;;;;;;;5.03;2.90;;;;;;;17.16;46.73;101902.56;5074810;28;20059;-63
2022/02/02 17:32:42;;;;;;;6.30;3.22;;;;;;;17.12;46.90;101903.81;5074385;28;20025;-63
2022/02/02 17:35:26;;;;;;;6.22;3.42;;;;;;;17.10;46.63;101913.97;5074095;28;20032;-63
2022/02/02 17:38:04;;;;;;;4.85;3.15;;;;;;;17.08;46.70;101907.84;5074418;28;20050;-63
2022/02/02 18:02:05;;;;;;;6.18;4.25;;;;;;;17.02;47.81;101930.06;5074043;28;20191;-62
2022/02/02 18:15:58;;;;;;;6.22;3.83;;;;;;;17.06;47.34;101917.94;5073869;28;20032;-63
2022/02/02 18:20:34;;;;;;;7.15;4.68;;;;;;;17.08;47.99;101924.09;5074297;28;20032;-63
2022/02/02 18:28:21;;;;;;;10.57;5.90;;;;;;;17.08;47.75;101924.09;5056219;28;20025;-63
2022/02/02 18:33:47;;;;;;;12.07;6.88;;;;;;;17.05;47.59;101919.81;5073908;28;20021;-62
2022/02/02 18:46:25;;;;;;;14.27;7.32;;;;;;;16.99;48.40;101919.53;5074071;28;20112;-62
2022/02/02 18:49:05;;;;;;;12.13;5.95;;;;;;;16.97;47.77;101910.72;5073565;28;20099;-63
2022/02/02 18:59:34;;;;;;;14.35;6.68;;;;;;;16.91;47.75;101911.28;5058412;28;20395;-64
2022/02/02 19:02:09;;;;;;;13.82;6.53;;;;;;;16.91;47.82;101912.13;5073723;28;20020;-63
2022/02/02 20:07:10;;;;;;;15.05;7.93;;;;;;;17.04;48.56;101938.91;4943721;28;20035;-63
2022/02/02 20:12:26;;;;;;;21.90;11.02;;;;;;;17.07;49.08;101938.63;4961626;28;20033;-63
2022/02/02 20:14:52;;;;;;;19.77;8.43;;;;;;;17.08;48.86;101930.38;4975474;28;20093;-63
2022/02/02 20:17:21;;;;;;;19.42;9.27;;;;;;;17.10;49.36;101938.31;5045960;28;20424;-63
2022/02/02 20:19:52;;;;;;;14.60;6.72;;;;;;;17.13;49.20;101943.47;5058460;28;20381;-63
2022/02/02 20:22:20;;;;;;;13.73;7.38;;;;;;;17.16;49.85;101932.34;5058863;28;20024;-63
2022/02/02 20:24:53;;;;;;;17.83;8.30;;;;;;;17.16;49.93;101938.63;5076051;28;20081;-63
2022/02/02 20:27:18;;;;;;;10.48;5.65;;;;;;;17.16;48.84;101933.19;5076384;28;20464;-64
2022/02/02 20:29:44;;;;;;;16.27;8.55;;;;;;;17.22;48.99;101939.88;5075868;28;20059;-63
2022/02/02 20:32:09;;;;;;;23.25;9.00;;;;;;;17.22;49.42;101924.50;5058184;28;20116;-63
2022/02/02 20:34:35;;;;;;;19.85;8.65;;;;;;;17.26;49.46;101927.75;5075925;28;20103;-64
2022/02/02 20:37:00;;;;;;;19.67;8.35;;;;;;;17.27;49.07;101929.47;5066409;28;20029;-64
2022/02/02 20:42:01;;;;;;;15.85;7.40;;;;;;;17.24;49.71;101933.31;5064337;28;20052;-63
2022/02/02 20:44:43;;;;;;;13.02;6.63;;;;;;;17.10;49.35;101917.53;5047595;28;20028;-63
2022/02/02 21:01:28;;;;;;;11.60;6.00;;;;;;;17.22;49.69;101938.03;5065068;28;20039;-64
2022/02/02 21:03:41;;;;;;;11.88;6.10;;;;;;;17.22;48.79;101945.31;5064100;28;20494;-63
2022/02/02 21:13:41;;;;;;;11.68;6.03;;;;;;;17.19;49.24;101942.88;5056874;28;20029;-64
2022/02/02 21:13:55;;;;;;;11.63;6.95;;;;;;;17.24;49.56;101955.00;5042955;28;20037;-64
2022/02/02 21:16:27;;;;;;;11.30;5.97;;;;;;;17.21;49.89;101946.28;5036315;28;20038;-64
2022/02/02 21:18:55;;;;;;;11.00;6.05;;;;;;;17.17;50.28;101945.72;5053908;28;20086;-64
2022/02/02 21:21:24;;;;;;;13.52;6.40;;;;;;;17.21;49.60;101943.59;5035839;28;20020;-64
2022/02/02 21:24:29;;;;;;;18.42;6.65;;;;;;;17.22;49.77;101937.19;5036455;28;20060;-63
2022/02/02 21:27:41;;;;;;;14.38;7.05;;;;;;;17.24;49.40;101935.19;5053652;28;20111;-63
2022/02/02 21:29:37;;;;;;;14.75;6.53;;;;;;;17.21;49.39;101924.63;5041044;28;20041;-64
2022/02/02 21:32:03;;;;;;;12.88;6.25;;;;;;;17.24;49.27;101935.19;5054464;28;20037;-63
2022/02/02 21:34:28;;;;;;;14.77;7.15;;;;;;;17.26;49.53;101933.16;5054619;28;20036;-63
2022/02/02 21:36:55;;;;;;;12.52;6.90;;;;;;;17.25;50.35;101932.31;5054098;28;20025;-63
2022/02/02 21:39:23;;;;;;;16.55;7.30;;;;;;;17.21;49.60;101943.59;5054354;28;20060;-63
2022/02/02 21:41:51;;;;;;;14.55;7.63;;;;;;;17.29;48.82;101959.97;5053870;28;20045;-63
2022/02/02 21:44:17;;;;;;;12.48;6.57;;;;;;;17.29;49.87;101959.97;5054231;28;20096;-63
2022/02/02 21:46:42;;;;;;;13.63;7.30;;;;;;;17.31;48.76;101957.94;5054023;28;20052;-64
2022/02/02 21:49:15;;;;;;;13.20;6.13;;;;;;;17.31;50.66;101955.25;5035914;28;20031;-63
2022/02/02 21:51:51;;;;;;;10.68;6.13;;;;;;;17.29;50.22;101949.13;5054334;28;20021;-64
2022/02/02 21:54:17;;;;;;;11.85;6.47;;;;;;;17.28;49.21;101953.69;5053838;28;20029;-63
2022/02/02 21:56:42;;;;;;;11.70;6.15;;;;;;;17.25;50.08;101953.97;5053851;28;20041;-64
2022/02/02 21:59:07;;;;;;;12.57;7.32;;;;;;;17.24;48.98;101956.84;5054261;28;20037;-63
2022/02/02 22:01:33;;;;;;;13.93;6.18;;;;;;;17.22;49.84;101953.44;5054732;28;20032;-63
2022/02/02 22:03:58;;;;;;;12.48;7.45;;;;;;;17.23;50.55;101955.13;5054254;28;20027;-64
2022/02/02 22:06:23;;;;;;;12.25;7.15;;;;;;;17.25;49.46;101955.84;5054200;28;20367;-63
2022/02/02 22:08:49;;;;;;;13.18;6.82;;;;;;;17.26;50.87;101949.41;5054461;28;20107;-63
2022/02/02 22:11:14;;;;;;;12.48;6.70;;;;;;;17.26;49.12;101949.41;5054170;28;20016;-63
2022/02/02 22:13:44;;;;;;;14.90;7.40;;;;;;;17.25;50.34;101936.91;5054104;28;20024;-64
2022/02/02 22:16:12;;;;;;;15.05;7.68;;;;;;;17.26;49.58;101938.59;5054137;28;20468;-63